sensor_id;sensor_type;location;lat;lon;timestamp;temperature;humidity
35497;DHT22;21609;49.298;6.844;2024-01-30T00:00:46;18.30;48.50
35497;DHT22;21609;49.298;6.844;2024-01-30T00:03:11;18.20;48.40
35497;DHT22;21609;49.298;6.844;2024-01-30T00:05:37;18.20;48.50
35497;DHT22;21609;49.298;6.844;2024-01-30T00:08:03;18.20;48.50
35497;DHT22;21609;49.298;6.844;2024-01-30T00:10:28;18.20;48.50
35497;DHT22;21609;49.298;6.844;2024-01-30T00:12:54;18.20;48.50
35497;DHT22;21609;49.298;6.844;2024-01-30T00:15:19;18.10;48.50
35497;DHT22;21609;49.298;6.844;2024-01-30T00:17:45;18.10;48.50
35497;DHT22;21609;49.298;6.844;2024-01-30T00:20:10;18.10;48.60
35497;DHT22;21609;49.298;6.844;2024-01-30T00:22:36;18.10;48.60
35497;DHT22;21609;49.298;6.844;2024-01-30T00:25:01;18.10;48.60
35497;DHT22;21609;49.298;6.844;2024-01-30T00:27:27;18.10;48.60
35497;DHT22;21609;49.298;6.844;2024-01-30T00:29:53;18.10;48.70
35497;DHT22;21609;49.298;6.844;2024-01-30T00:32:18;18.00;48.60
35497;DHT22;21609;49.298;6.844;2024-01-30T00:34:44;18.00;48.60
35497;DHT22;21609;49.298;6.844;2024-01-30T00:37:10;18.00;48.60
35497;DHT22;21609;49.298;6.844;2024-01-30T00:39:35;18.00;48.70
35497;DHT22;21609;49.298;6.844;2024-01-30T00:42:01;18.00;48.70
35497;DHT22;21609;49.298;6.844;2024-01-30T00:44:27;18.00;48.70
35497;DHT22;21609;49.298;6.844;2024-01-30T00:46:53;18.00;48.70
35497;DHT22;21609;49.298;6.844;2024-01-30T00:49:18;18.00;48.70
35497;DHT22;21609;49.298;6.844;2024-01-30T00:51:44;17.90;48.70
35497;DHT22;21609;49.298;6.844;2024-01-30T00:54:10;17.90;48.70
35497;DHT22;21609;49.298;6.844;2024-01-30T00:56:35;17.90;48.70
35497;DHT22;21609;49.298;6.844;2024-01-30T00:59:01;17.90;48.70
35497;DHT22;21609;49.298;6.844;2024-01-30T01:01:26;17.90;48.80
35497;DHT22;21609;49.298;6.844;2024-01-30T01:03:52;17.90;48.80
35497;DHT22;21609;49.298;6.844;2024-01-30T01:06:17;17.90;48.80
35497;DHT22;21609;49.298;6.844;2024-01-30T01:08:43;17.80;48.70
35497;DHT22;21609;49.298;6.844;2024-01-30T01:11:08;17.80;48.70
35497;DHT22;21609;49.298;6.844;2024-01-30T01:13:34;17.80;48.80
35497;DHT22;21609;49.298;6.844;2024-01-30T01:16:00;17.80;48.80
35497;DHT22;21609;49.298;6.844;2024-01-30T01:18:25;17.80;48.80
35497;DHT22;21609;49.298;6.844;2024-01-30T01:20:52;17.80;48.80
35497;DHT22;21609;49.298;6.844;2024-01-30T01:23:18;17.80;48.80
35497;DHT22;21609;49.298;6.844;2024-01-30T01:25:44;17.80;48.90
35497;DHT22;21609;49.298;6.844;2024-01-30T01:28:09;17.70;48.80
35497;DHT22;21609;49.298;6.844;2024-01-30T01:30:35;17.70;48.80
35497;DHT22;21609;49.298;6.844;2024-01-30T01:33:01;17.70;48.80
35497;DHT22;21609;49.298;6.844;2024-01-30T01:35:27;17.70;48.90
35497;DHT22;21609;49.298;6.844;2024-01-30T01:37:53;17.70;48.90
35497;DHT22;21609;49.298;6.844;2024-01-30T01:40:24;17.70;48.90
35497;DHT22;21609;49.298;6.844;2024-01-30T01:42:51;17.70;48.90
35497;DHT22;21609;49.298;6.844;2024-01-30T01:45:20;17.60;48.90
35497;DHT22;21609;49.298;6.844;2024-01-30T01:47:48;17.60;48.90
35497;DHT22;21609;49.298;6.844;2024-01-30T01:50:16;17.60;48.90
35497;DHT22;21609;49.298;6.844;2024-01-30T01:52:49;17.60;48.90
35497;DHT22;21609;49.298;6.844;2024-01-30T01:55:16;17.60;49.50
35497;DHT22;21609;49.298;6.844;2024-01-30T01:57:44;17.60;48.90
35497;DHT22;21609;49.298;6.844;2024-01-30T02:00:10;17.60;48.80
35497;DHT22;21609;49.298;6.844;2024-01-30T02:02:37;17.60;48.90
35497;DHT22;21609;49.298;6.844;2024-01-30T02:05:04;17.60;48.90
35497;DHT22;21609;49.298;6.844;2024-01-30T02:07:30;17.60;48.90
35497;DHT22;21609;49.298;6.844;2024-01-30T02:09:56;17.60;48.90
35497;DHT22;21609;49.298;6.844;2024-01-30T02:12:21;17.60;48.90
35497;DHT22;21609;49.298;6.844;2024-01-30T02:14:48;17.50;49.00
35497;DHT22;21609;49.298;6.844;2024-01-30T02:17:15;17.50;49.00
35497;DHT22;21609;49.298;6.844;2024-01-30T02:19:40;17.50;49.10
35497;DHT22;21609;49.298;6.844;2024-01-30T02:22:07;17.50;49.10
35497;DHT22;21609;49.298;6.844;2024-01-30T02:24:33;17.50;49.10
35497;DHT22;21609;49.298;6.844;2024-01-30T02:26:58;17.50;49.10
35497;DHT22;21609;49.298;6.844;2024-01-30T02:29:24;17.40;49.10
35497;DHT22;21609;49.298;6.844;2024-01-30T02:31:50;17.50;49.10
35497;DHT22;21609;49.298;6.844;2024-01-30T02:34:15;17.40;49.10
35497;DHT22;21609;49.298;6.844;2024-01-30T02:36:44;17.50;49.10
35497;DHT22;21609;49.298;6.844;2024-01-30T02:39:10;17.40;49.10
35497;DHT22;21609;49.298;6.844;2024-01-30T02:41:36;17.40;49.10
35497;DHT22;21609;49.298;6.844;2024-01-30T02:44:03;17.40;49.20
35497;DHT22;21609;49.298;6.844;2024-01-30T02:46:28;17.40;49.10
35497;DHT22;21609;49.298;6.844;2024-01-30T02:48:54;17.40;49.20
35497;DHT22;21609;49.298;6.844;2024-01-30T02:51:19;17.40;49.20
35497;DHT22;21609;49.298;6.844;2024-01-30T02:53:45;17.30;49.20
35497;DHT22;21609;49.298;6.844;2024-01-30T02:56:11;17.30;49.20
35497;DHT22;21609;49.298;6.844;2024-01-30T02:58:39;17.30;49.20
35497;DHT22;21609;49.298;6.844;2024-01-30T03:01:05;17.30;49.20
35497;DHT22;21609;49.298;6.844;2024-01-30T03:03:30;17.30;49.20
35497;DHT22;21609;49.298;6.844;2024-01-30T03:05:56;17.30;49.20
35497;DHT22;21609;49.298;6.844;2024-01-30T03:08:21;17.30;49.20
35497;DHT22;21609;49.298;6.844;2024-01-30T03:10:47;17.30;49.20
35497;DHT22;21609;49.298;6.844;2024-01-30T03:13:13;17.30;49.20
35497;DHT22;21609;49.298;6.844;2024-01-30T03:15:38;17.20;49.20
35497;DHT22;21609;49.298;6.844;2024-01-30T03:18:04;17.20;49.20
35497;DHT22;21609;49.298;6.844;2024-01-30T03:20:30;17.20;49.20
35497;DHT22;21609;49.298;6.844;2024-01-30T03:22:56;17.20;49.20
35497;DHT22;21609;49.298;6.844;2024-01-30T03:25:21;17.20;49.20
35497;DHT22;21609;49.298;6.844;2024-01-30T03:27:47;17.20;49.20
35497;DHT22;21609;49.298;6.844;2024-01-30T03:30:12;17.20;49.20
35497;DHT22;21609;49.298;6.844;2024-01-30T03:32:38;17.10;49.20
35497;DHT22;21609;49.298;6.844;2024-01-30T03:35:04;17.20;49.20
35497;DHT22;21609;49.298;6.844;2024-01-30T03:37:30;17.10;49.20
35497;DHT22;21609;49.298;6.844;2024-01-30T03:39:56;17.10;49.20
35497;DHT22;21609;49.298;6.844;2024-01-30T03:42:22;17.10;49.20
35497;DHT22;21609;49.298;6.844;2024-01-30T03:44:48;17.10;49.30
35497;DHT22;21609;49.298;6.844;2024-01-30T03:47:13;17.10;49.30
35497;DHT22;21609;49.298;6.844;2024-01-30T03:49:39;17.10;49.30
35497;DHT22;21609;49.298;6.844;2024-01-30T03:52:05;17.10;49.30
35497;DHT22;21609;49.298;6.844;2024-01-30T03:54:30;17.10;49.30
35497;DHT22;21609;49.298;6.844;2024-01-30T03:56:56;17.00;49.30
35497;DHT22;21609;49.298;6.844;2024-01-30T03:59:21;17.00;49.30
35497;DHT22;21609;49.298;6.844;2024-01-30T04:01:50;17.00;49.80
35497;DHT22;21609;49.298;6.844;2024-01-30T04:04:17;17.00;49.30
35497;DHT22;21609;49.298;6.844;2024-01-30T04:06:44;17.00;49.30
35497;DHT22;21609;49.298;6.844;2024-01-30T04:09:09;17.00;49.30
35497;DHT22;21609;49.298;6.844;2024-01-30T04:11:36;17.00;49.30
35497;DHT22;21609;49.298;6.844;2024-01-30T04:14:02;17.00;49.30
35497;DHT22;21609;49.298;6.844;2024-01-30T04:16:27;17.00;49.40
35497;DHT22;21609;49.298;6.844;2024-01-30T04:18:53;16.90;49.30
35497;DHT22;21609;49.298;6.844;2024-01-30T04:21:20;16.90;49.30
35497;DHT22;21609;49.298;6.844;2024-01-30T04:23:46;16.90;49.30
35497;DHT22;21609;49.298;6.844;2024-01-30T04:26:12;16.90;49.40
35497;DHT22;21609;49.298;6.844;2024-01-30T04:28:37;16.90;50.00
35497;DHT22;21609;49.298;6.844;2024-01-30T04:31:03;16.90;49.40
35497;DHT22;21609;49.298;6.844;2024-01-30T04:33:29;16.90;49.40
35497;DHT22;21609;49.298;6.844;2024-01-30T04:35:54;16.90;49.40
35497;DHT22;21609;49.298;6.844;2024-01-30T04:38:20;16.90;49.40
35497;DHT22;21609;49.298;6.844;2024-01-30T04:40:45;16.80;49.40
35497;DHT22;21609;49.298;6.844;2024-01-30T04:43:11;16.80;49.30
35497;DHT22;21609;49.298;6.844;2024-01-30T04:45:36;16.80;49.40
35497;DHT22;21609;49.298;6.844;2024-01-30T04:48:02;16.80;49.40
35497;DHT22;21609;49.298;6.844;2024-01-30T04:50:27;16.80;49.40
35497;DHT22;21609;49.298;6.844;2024-01-30T04:52:53;16.80;49.40
35497;DHT22;21609;49.298;6.844;2024-01-30T04:55:18;16.80;49.40
35497;DHT22;21609;49.298;6.844;2024-01-30T04:57:44;16.80;49.40
35497;DHT22;21609;49.298;6.844;2024-01-30T05:00:10;16.80;50.00
35497;DHT22;21609;49.298;6.844;2024-01-30T05:02:35;16.80;49.40
35497;DHT22;21609;49.298;6.844;2024-01-30T05:05:01;16.80;49.50
35497;DHT22;21609;49.298;6.844;2024-01-30T05:07:27;16.80;49.40
35497;DHT22;21609;49.298;6.844;2024-01-30T05:09:52;16.80;49.40
35497;DHT22;21609;49.298;6.844;2024-01-30T05:12:19;16.80;49.40
35497;DHT22;21609;49.298;6.844;2024-01-30T05:14:44;16.70;49.40
35497;DHT22;21609;49.298;6.844;2024-01-30T05:17:10;16.70;49.40
35497;DHT22;21609;49.298;6.844;2024-01-30T05:19:38;16.70;49.40
35497;DHT22;21609;49.298;6.844;2024-01-30T05:22:03;16.70;49.40
35497;DHT22;21609;49.298;6.844;2024-01-30T05:24:29;16.60;49.40
35497;DHT22;21609;49.298;6.844;2024-01-30T05:26:55;16.70;49.50
35497;DHT22;21609;49.298;6.844;2024-01-30T05:29:20;16.70;49.50
35497;DHT22;21609;49.298;6.844;2024-01-30T05:31:46;16.60;49.40
35497;DHT22;21609;49.298;6.844;2024-01-30T05:34:11;16.70;49.50
35497;DHT22;21609;49.298;6.844;2024-01-30T05:36:37;16.60;49.40
35497;DHT22;21609;49.298;6.844;2024-01-30T05:39:02;16.60;49.40
35497;DHT22;21609;49.298;6.844;2024-01-30T05:41:28;16.60;49.40
35497;DHT22;21609;49.298;6.844;2024-01-30T05:43:53;16.60;49.50
35497;DHT22;21609;49.298;6.844;2024-01-30T05:46:19;16.60;49.50
35497;DHT22;21609;49.298;6.844;2024-01-30T05:48:44;16.60;49.50
35497;DHT22;21609;49.298;6.844;2024-01-30T05:51:10;16.60;49.50
35497;DHT22;21609;49.298;6.844;2024-01-30T05:53:35;16.60;49.50
35497;DHT22;21609;49.298;6.844;2024-01-30T05:56:02;16.60;49.50
35497;DHT22;21609;49.298;6.844;2024-01-30T05:58:27;16.60;49.50
35497;DHT22;21609;49.298;6.844;2024-01-30T06:00:53;16.60;49.50
35497;DHT22;21609;49.298;6.844;2024-01-30T06:03:19;16.50;49.50
35497;DHT22;21609;49.298;6.844;2024-01-30T06:05:44;16.50;49.50
35497;DHT22;21609;49.298;6.844;2024-01-30T06:08:10;16.50;49.50
35497;DHT22;21609;49.298;6.844;2024-01-30T06:10:35;16.50;49.50
35497;DHT22;21609;49.298;6.844;2024-01-30T06:13:01;16.50;49.60
35497;DHT22;21609;49.298;6.844;2024-01-30T06:15:27;16.50;49.50
35497;DHT22;21609;49.298;6.844;2024-01-30T06:17:55;16.50;49.50
35497;DHT22;21609;49.298;6.844;2024-01-30T06:20:20;16.50;49.60
35497;DHT22;21609;49.298;6.844;2024-01-30T06:22:46;16.50;49.60
35497;DHT22;21609;49.298;6.844;2024-01-30T06:25:11;16.40;49.50
35497;DHT22;21609;49.298;6.844;2024-01-30T06:27:37;16.40;49.60
35497;DHT22;21609;49.298;6.844;2024-01-30T06:30:04;16.40;49.60
35497;DHT22;21609;49.298;6.844;2024-01-30T06:32:29;16.40;49.50
35497;DHT22;21609;49.298;6.844;2024-01-30T06:35:00;16.40;49.60
35497;DHT22;21609;49.298;6.844;2024-01-30T06:37:25;16.40;49.60
35497;DHT22;21609;49.298;6.844;2024-01-30T06:39:51;16.40;49.60
35497;DHT22;21609;49.298;6.844;2024-01-30T06:42:18;16.40;49.60
35497;DHT22;21609;49.298;6.844;2024-01-30T06:44:43;16.40;49.60
35497;DHT22;21609;49.298;6.844;2024-01-30T06:47:09;16.40;49.60
35497;DHT22;21609;49.298;6.844;2024-01-30T06:49:35;16.40;49.60
35497;DHT22;21609;49.298;6.844;2024-01-30T06:52:06;16.40;49.60
35497;DHT22;21609;49.298;6.844;2024-01-30T06:54:32;16.40;49.60
35497;DHT22;21609;49.298;6.844;2024-01-30T06:56:58;16.30;49.60
35497;DHT22;21609;49.298;6.844;2024-01-30T06:59:24;16.40;50.30
35497;DHT22;21609;49.298;6.844;2024-01-30T07:01:50;16.40;49.80
35497;DHT22;21609;49.298;6.844;2024-01-30T07:04:15;16.40;49.70
35497;DHT22;21609;49.298;6.844;2024-01-30T07:06:41;16.30;49.70
35497;DHT22;21609;49.298;6.844;2024-01-30T07:09:07;16.30;49.70
35497;DHT22;21609;49.298;6.844;2024-01-30T07:11:34;16.30;50.00
35497;DHT22;21609;49.298;6.844;2024-01-30T07:13:59;16.30;49.70
35497;DHT22;21609;49.298;6.844;2024-01-30T07:16:25;16.30;49.80
35497;DHT22;21609;49.298;6.844;2024-01-30T07:18:51;16.10;49.10
35497;DHT22;21609;49.298;6.844;2024-01-30T07:21:16;16.30;50.10
35497;DHT22;21609;49.298;6.844;2024-01-30T07:23:42;16.60;49.30
35497;DHT22;21609;49.298;6.844;2024-01-30T07:26:08;16.70;49.00
35497;DHT22;21609;49.298;6.844;2024-01-30T07:28:34;16.90;48.70
35497;DHT22;21609;49.298;6.844;2024-01-30T07:31:01;17.00;48.50
35497;DHT22;21609;49.298;6.844;2024-01-30T07:33:26;17.20;48.10
35497;DHT22;21609;49.298;6.844;2024-01-30T07:35:53;17.40;47.80
35497;DHT22;21609;49.298;6.844;2024-01-30T07:38:19;17.50;47.60
35497;DHT22;21609;49.298;6.844;2024-01-30T07:40:45;17.60;47.40
35497;DHT22;21609;49.298;6.844;2024-01-30T07:43:11;17.70;47.20
35497;DHT22;21609;49.298;6.844;2024-01-30T07:45:36;17.70;47.00
35497;DHT22;21609;49.298;6.844;2024-01-30T07:48:05;17.80;47.10
35497;DHT22;21609;49.298;6.844;2024-01-30T07:50:31;17.80;47.20
35497;DHT22;21609;49.298;6.844;2024-01-30T07:52:59;17.80;47.10
35497;DHT22;21609;49.298;6.844;2024-01-30T07:55:24;17.90;47.10
35497;DHT22;21609;49.298;6.844;2024-01-30T07:57:52;17.90;47.20
35497;DHT22;21609;49.298;6.844;2024-01-30T08:00:19;17.90;47.00
35497;DHT22;21609;49.298;6.844;2024-01-30T08:02:47;18.00;47.00
35497;DHT22;21609;49.298;6.844;2024-01-30T08:05:16;18.10;46.90
35497;DHT22;21609;49.298;6.844;2024-01-30T08:07:42;18.20;46.80
35497;DHT22;21609;49.298;6.844;2024-01-30T08:10:08;18.10;46.90
35497;DHT22;21609;49.298;6.844;2024-01-30T08:12:34;18.00;47.40
35497;DHT22;21609;49.298;6.844;2024-01-30T08:14:59;18.00;48.20
35497;DHT22;21609;49.298;6.844;2024-01-30T08:17:25;18.00;47.70
35497;DHT22;21609;49.298;6.844;2024-01-30T08:19:50;18.00;47.80
35497;DHT22;21609;49.298;6.844;2024-01-30T08:22:16;18.00;47.80
35497;DHT22;21609;49.298;6.844;2024-01-30T08:24:41;18.00;47.80
35497;DHT22;21609;49.298;6.844;2024-01-30T08:27:07;18.00;47.90
35497;DHT22;21609;49.298;6.844;2024-01-30T08:29:35;18.00;47.90
35497;DHT22;21609;49.298;6.844;2024-01-30T08:32:01;18.00;48.00
35497;DHT22;21609;49.298;6.844;2024-01-30T08:34:27;18.10;48.00
35497;DHT22;21609;49.298;6.844;2024-01-30T08:36:52;18.10;47.90
35497;DHT22;21609;49.298;6.844;2024-01-30T08:39:18;18.10;47.90
35497;DHT22;21609;49.298;6.844;2024-01-30T08:41:44;18.10;47.90
35497;DHT22;21609;49.298;6.844;2024-01-30T08:44:10;18.20;47.80
35497;DHT22;21609;49.298;6.844;2024-01-30T08:46:36;18.20;47.80
35497;DHT22;21609;49.298;6.844;2024-01-30T08:49:02;18.30;47.90
35497;DHT22;21609;49.298;6.844;2024-01-30T08:51:32;18.30;47.90
35497;DHT22;21609;49.298;6.844;2024-01-30T08:53:59;18.40;47.90
35497;DHT22;21609;49.298;6.844;2024-01-30T08:56:25;18.40;47.90
35497;DHT22;21609;49.298;6.844;2024-01-30T08:58:51;18.50;47.90
35497;DHT22;21609;49.298;6.844;2024-01-30T09:01:16;18.50;47.80
35497;DHT22;21609;49.298;6.844;2024-01-30T09:03:42;18.70;47.70
35497;DHT22;21609;49.298;6.844;2024-01-30T09:06:11;18.70;47.70
35497;DHT22;21609;49.298;6.844;2024-01-30T09:08:37;18.70;47.80
35497;DHT22;21609;49.298;6.844;2024-01-30T09:11:13;18.70;47.80
35497;DHT22;21609;49.298;6.844;2024-01-30T09:13:39;18.70;48.00
35497;DHT22;21609;49.298;6.844;2024-01-30T09:16:05;18.60;48.10
35497;DHT22;21609;49.298;6.844;2024-01-30T09:18:31;18.70;48.00
35497;DHT22;21609;49.298;6.844;2024-01-30T09:20:57;18.70;48.00
35497;DHT22;21609;49.298;6.844;2024-01-30T09:23:22;18.70;48.00
35497;DHT22;21609;49.298;6.844;2024-01-30T09:25:48;18.80;48.00
35497;DHT22;21609;49.298;6.844;2024-01-30T09:28:14;18.80;48.00
35497;DHT22;21609;49.298;6.844;2024-01-30T09:30:39;18.80;47.90
35497;DHT22;21609;49.298;6.844;2024-01-30T09:33:05;18.80;47.90
35497;DHT22;21609;49.298;6.844;2024-01-30T09:35:31;18.80;47.80
35497;DHT22;21609;49.298;6.844;2024-01-30T09:37:57;18.90;47.80
35497;DHT22;21609;49.298;6.844;2024-01-30T09:40:23;18.90;47.80
35497;DHT22;21609;49.298;6.844;2024-01-30T09:42:51;18.90;47.70
35497;DHT22;21609;49.298;6.844;2024-01-30T09:45:19;19.00;47.80
35497;DHT22;21609;49.298;6.844;2024-01-30T09:47:45;19.00;47.60
35497;DHT22;21609;49.298;6.844;2024-01-30T09:50:12;19.00;47.60
35497;DHT22;21609;49.298;6.844;2024-01-30T09:52:39;19.00;47.60
35497;DHT22;21609;49.298;6.844;2024-01-30T09:55:06;19.00;47.60
35497;DHT22;21609;49.298;6.844;2024-01-30T09:57:32;19.00;47.60
35497;DHT22;21609;49.298;6.844;2024-01-30T09:59:58;19.00;47.60
35497;DHT22;21609;49.298;6.844;2024-01-30T10:02:23;19.00;47.60
35497;DHT22;21609;49.298;6.844;2024-01-30T10:04:50;19.00;47.50
35497;DHT22;21609;49.298;6.844;2024-01-30T10:07:16;19.00;47.40
35497;DHT22;21609;49.298;6.844;2024-01-30T10:09:41;19.00;47.40
35497;DHT22;21609;49.298;6.844;2024-01-30T10:12:08;19.10;47.50
35497;DHT22;21609;49.298;6.844;2024-01-30T10:14:37;19.10;47.40
35497;DHT22;21609;49.298;6.844;2024-01-30T10:17:03;19.10;47.30
35497;DHT22;21609;49.298;6.844;2024-01-30T10:19:29;19.10;47.30
35497;DHT22;21609;49.298;6.844;2024-01-30T10:21:55;19.10;47.30
35497;DHT22;21609;49.298;6.844;2024-01-30T10:24:24;19.10;47.40
35497;DHT22;21609;49.298;6.844;2024-01-30T10:26:50;19.20;47.30
35497;DHT22;21609;49.298;6.844;2024-01-30T10:29:17;19.20;47.20
35497;DHT22;21609;49.298;6.844;2024-01-30T10:31:42;19.20;47.10
35497;DHT22;21609;49.298;6.844;2024-01-30T10:34:08;19.20;47.10
35497;DHT22;21609;49.298;6.844;2024-01-30T10:36:40;19.20;46.90
35497;DHT22;21609;49.298;6.844;2024-01-30T10:39:08;19.20;46.90
35497;DHT22;21609;49.298;6.844;2024-01-30T10:41:41;19.30;46.90
35497;DHT22;21609;49.298;6.844;2024-01-30T10:44:09;19.30;46.80
35497;DHT22;21609;49.298;6.844;2024-01-30T10:46:38;19.30;46.70
35497;DHT22;21609;49.298;6.844;2024-01-30T10:49:04;19.30;46.80
35497;DHT22;21609;49.298;6.844;2024-01-30T10:51:31;19.30;46.80
35497;DHT22;21609;49.298;6.844;2024-01-30T10:53:57;19.50;46.40
35497;DHT22;21609;49.298;6.844;2024-01-30T10:56:24;19.50;46.20
35497;DHT22;21609;49.298;6.844;2024-01-30T10:58:53;19.70;46.10
35497;DHT22;21609;49.298;6.844;2024-01-30T11:01:20;19.70;46.00
35497;DHT22;21609;49.298;6.844;2024-01-30T11:03:57;19.60;46.10
35497;DHT22;21609;49.298;6.844;2024-01-30T11:06:24;19.60;46.10
35497;DHT22;21609;49.298;6.844;2024-01-30T11:09:03;19.60;46.10
35497;DHT22;21609;49.298;6.844;2024-01-30T11:11:29;19.50;46.60
35497;DHT22;21609;49.298;6.844;2024-01-30T11:13:55;19.50;46.50
35497;DHT22;21609;49.298;6.844;2024-01-30T11:16:20;19.60;46.40
35497;DHT22;21609;49.298;6.844;2024-01-30T11:18:50;19.70;46.30
35497;DHT22;21609;49.298;6.844;2024-01-30T11:21:19;19.60;46.30
35497;DHT22;21609;49.298;6.844;2024-01-30T11:23:44;19.60;46.30
35497;DHT22;21609;49.298;6.844;2024-01-30T11:26:10;19.70;46.20
35497;DHT22;21609;49.298;6.844;2024-01-30T11:28:37;19.70;46.20
35497;DHT22;21609;49.298;6.844;2024-01-30T11:31:06;19.80;46.00
35497;DHT22;21609;49.298;6.844;2024-01-30T11:33:32;19.70;46.20
35497;DHT22;21609;49.298;6.844;2024-01-30T11:35:59;19.70;46.20
35497;DHT22;21609;49.298;6.844;2024-01-30T11:38:26;19.70;46.20
35497;DHT22;21609;49.298;6.844;2024-01-30T11:40:54;19.70;46.40
35497;DHT22;21609;49.298;6.844;2024-01-30T11:43:20;19.60;46.60
35497;DHT22;21609;49.298;6.844;2024-01-30T11:45:46;19.60;46.60
35497;DHT22;21609;49.298;6.844;2024-01-30T11:48:12;19.60;46.70
35497;DHT22;21609;49.298;6.844;2024-01-30T11:50:39;19.60;46.70
35497;DHT22;21609;49.298;6.844;2024-01-30T11:53:05;19.60;46.90
35497;DHT22;21609;49.298;6.844;2024-01-30T11:55:31;19.60;47.00
35497;DHT22;21609;49.298;6.844;2024-01-30T11:57:57;19.60;47.00
35497;DHT22;21609;49.298;6.844;2024-01-30T12:00:24;19.50;47.30
35497;DHT22;21609;49.298;6.844;2024-01-30T12:02:54;19.50;47.40
35497;DHT22;21609;49.298;6.844;2024-01-30T12:05:24;19.60;47.10
35497;DHT22;21609;49.298;6.844;2024-01-30T12:07:50;19.70;47.10
35497;DHT22;21609;49.298;6.844;2024-01-30T12:10:16;19.60;47.10
35497;DHT22;21609;49.298;6.844;2024-01-30T12:12:49;19.70;47.00
35497;DHT22;21609;49.298;6.844;2024-01-30T12:15:15;19.80;46.90
35497;DHT22;21609;49.298;6.844;2024-01-30T12:17:41;19.80;46.90
35497;DHT22;21609;49.298;6.844;2024-01-30T12:22:37;19.90;46.90
35497;DHT22;21609;49.298;6.844;2024-01-30T12:25:13;19.90;46.80
35497;DHT22;21609;49.298;6.844;2024-01-30T12:27:41;19.90;46.80
35497;DHT22;21609;49.298;6.844;2024-01-30T12:30:11;19.90;46.80
35497;DHT22;21609;49.298;6.844;2024-01-30T12:32:39;20.00;46.70
35497;DHT22;21609;49.298;6.844;2024-01-30T12:35:12;20.00;46.70
35497;DHT22;21609;49.298;6.844;2024-01-30T12:37:39;20.00;46.60
35497;DHT22;21609;49.298;6.844;2024-01-30T12:40:05;20.00;46.70
35497;DHT22;21609;49.298;6.844;2024-01-30T12:42:32;20.00;46.60
35497;DHT22;21609;49.298;6.844;2024-01-30T12:44:58;20.00;46.60
35497;DHT22;21609;49.298;6.844;2024-01-30T12:47:24;20.10;46.70
35497;DHT22;21609;49.298;6.844;2024-01-30T12:49:50;20.10;46.60
35497;DHT22;21609;49.298;6.844;2024-01-30T12:52:19;20.10;46.60
35497;DHT22;21609;49.298;6.844;2024-01-30T12:54:45;20.10;47.20
35497;DHT22;21609;49.298;6.844;2024-01-30T12:57:10;20.10;46.50
35497;DHT22;21609;49.298;6.844;2024-01-30T12:59:36;20.10;46.50
35497;DHT22;21609;49.298;6.844;2024-01-30T13:02:02;20.20;46.50
35497;DHT22;21609;49.298;6.844;2024-01-30T13:04:30;20.10;46.50
35497;DHT22;21609;49.298;6.844;2024-01-30T13:06:56;20.10;46.60
35497;DHT22;21609;49.298;6.844;2024-01-30T13:09:22;20.10;46.70
35497;DHT22;21609;49.298;6.844;2024-01-30T13:11:48;20.10;46.50
35497;DHT22;21609;49.298;6.844;2024-01-30T13:14:14;20.00;46.50
35497;DHT22;21609;49.298;6.844;2024-01-30T13:16:39;20.00;46.80
35497;DHT22;21609;49.298;6.844;2024-01-30T13:19:05;20.00;46.80
35497;DHT22;21609;49.298;6.844;2024-01-30T13:21:31;20.00;46.80
35497;DHT22;21609;49.298;6.844;2024-01-30T13:23:56;19.90;46.90
35497;DHT22;21609;49.298;6.844;2024-01-30T13:26:22;19.90;46.90
35497;DHT22;21609;49.298;6.844;2024-01-30T13:28:48;19.90;46.90
35497;DHT22;21609;49.298;6.844;2024-01-30T13:31:16;19.90;46.90
35497;DHT22;21609;49.298;6.844;2024-01-30T13:33:42;19.90;46.90
35497;DHT22;21609;49.298;6.844;2024-01-30T13:36:11;19.90;46.90
35497;DHT22;21609;49.298;6.844;2024-01-30T13:38:37;19.90;47.00
35497;DHT22;21609;49.298;6.844;2024-01-30T13:41:04;19.90;46.90
35497;DHT22;21609;49.298;6.844;2024-01-30T13:43:30;19.90;46.90
35497;DHT22;21609;49.298;6.844;2024-01-30T13:45:55;19.90;46.80
35497;DHT22;21609;49.298;6.844;2024-01-30T13:48:21;19.90;46.80
35497;DHT22;21609;49.298;6.844;2024-01-30T13:50:47;19.90;46.90
35497;DHT22;21609;49.298;6.844;2024-01-30T13:53:13;19.90;46.90
35497;DHT22;21609;49.298;6.844;2024-01-30T13:55:39;19.90;46.80
35497;DHT22;21609;49.298;6.844;2024-01-30T13:58:05;19.90;46.80
35497;DHT22;21609;49.298;6.844;2024-01-30T14:00:31;19.90;46.80
35497;DHT22;21609;49.298;6.844;2024-01-30T14:02:56;19.90;46.80
35497;DHT22;21609;49.298;6.844;2024-01-30T14:05:24;19.90;46.80
35497;DHT22;21609;49.298;6.844;2024-01-30T14:07:50;19.90;46.90
35497;DHT22;21609;49.298;6.844;2024-01-30T14:10:16;19.90;46.90
35497;DHT22;21609;49.298;6.844;2024-01-30T14:12:42;19.90;46.80
35497;DHT22;21609;49.298;6.844;2024-01-30T14:15:13;19.90;46.90
35497;DHT22;21609;49.298;6.844;2024-01-30T14:17:40;19.90;46.90
35497;DHT22;21609;49.298;6.844;2024-01-30T14:20:06;19.90;46.70
35497;DHT22;21609;49.298;6.844;2024-01-30T14:22:33;19.90;46.80
35497;DHT22;21609;49.298;6.844;2024-01-30T14:25:00;19.90;46.80
35497;DHT22;21609;49.298;6.844;2024-01-30T14:27:25;19.80;46.80
35497;DHT22;21609;49.298;6.844;2024-01-30T14:29:51;19.90;46.80
35497;DHT22;21609;49.298;6.844;2024-01-30T14:32:16;19.90;46.80
35497;DHT22;21609;49.298;6.844;2024-01-30T14:34:42;19.90;46.90
35497;DHT22;21609;49.298;6.844;2024-01-30T14:37:08;19.90;46.70
35497;DHT22;21609;49.298;6.844;2024-01-30T14:39:33;20.00;46.90
35497;DHT22;21609;49.298;6.844;2024-01-30T14:41:59;20.00;46.70
35497;DHT22;21609;49.298;6.844;2024-01-30T14:44:25;20.00;46.70
35497;DHT22;21609;49.298;6.844;2024-01-30T14:46:51;20.00;46.70
35497;DHT22;21609;49.298;6.844;2024-01-30T14:49:17;19.90;46.70
35497;DHT22;21609;49.298;6.844;2024-01-30T14:51:42;19.90;46.80
35497;DHT22;21609;49.298;6.844;2024-01-30T14:54:08;19.90;46.80
35497;DHT22;21609;49.298;6.844;2024-01-30T14:56:34;19.90;46.80
35497;DHT22;21609;49.298;6.844;2024-01-30T14:59:00;19.90;46.80
35497;DHT22;21609;49.298;6.844;2024-01-30T15:01:25;19.90;46.70
35497;DHT22;21609;49.298;6.844;2024-01-30T15:03:51;19.90;46.80
35497;DHT22;21609;49.298;6.844;2024-01-30T15:06:17;19.90;46.70
35497;DHT22;21609;49.298;6.844;2024-01-30T15:08:43;19.90;46.80
35497;DHT22;21609;49.298;6.844;2024-01-30T15:11:09;19.90;46.80
35497;DHT22;21609;49.298;6.844;2024-01-30T15:13:35;19.90;46.70
35497;DHT22;21609;49.298;6.844;2024-01-30T15:16:02;19.90;46.70
35497;DHT22;21609;49.298;6.844;2024-01-30T15:18:28;19.90;46.80
35497;DHT22;21609;49.298;6.844;2024-01-30T15:20:54;19.90;46.80
35497;DHT22;21609;49.298;6.844;2024-01-30T15:23:19;19.90;46.80
35497;DHT22;21609;49.298;6.844;2024-01-30T15:25:45;19.90;46.80